createdAt,value
2022-11-29T00:09:38.539Z,100185.72
2022-11-29T00:19:45.105Z,100177.56
2022-11-29T00:29:48.883Z,100172.94
2022-11-29T00:39:53.884Z,100180.81
2022-11-29T00:49:57.802Z,100182.47
2022-11-29T01:00:02.908Z,100182.78
2022-11-29T01:10:08.714Z,100179.56
2022-11-29T01:20:14.999Z,100184.59
2022-11-29T01:30:18.890Z,100198.81
2022-11-29T01:40:23.967Z,100204.19
2022-11-29T01:50:27.708Z,100210.06
2022-11-29T02:00:33.418Z,100204.41
2022-11-29T02:10:50.811Z,100199.31
2022-11-29T02:21:19.828Z,100197.50
2022-11-29T02:32:09.867Z,100216.09
2022-11-29T02:42:56.492Z,100219.34
2022-11-29T02:53:10.425Z,100221.78
2022-11-29T03:03:23.832Z,100210.38
2022-11-29T03:13:46.899Z,100224.97
2022-11-29T03:23:56.171Z,100231.91
2022-11-29T03:34:10.208Z,100247.78
2022-11-29T03:44:20.122Z,100249.34
2022-11-29T03:54:29.138Z,100262.28
2022-11-29T04:05:22.896Z,100256.50
2022-11-29T04:16:10.168Z,100248.41
2022-11-29T04:26:58.107Z,100266.81
2022-11-29T04:37:39.873Z,100272.00
2022-11-29T04:48:09.721Z,100276.16
2022-11-29T04:58:25.427Z,100296.78
2022-11-29T05:08:41.899Z,100306.25
2022-11-29T05:19:13.171Z,100302.44
2022-11-29T05:29:29.651Z,100317.50
2022-11-29T05:39:53.519Z,100331.44
2022-11-29T05:50:06.933Z,100329.38
2022-11-29T06:00:16.731Z,100336.06
2022-11-29T06:10:27.943Z,100345.09
2022-11-29T06:20:53.842Z,100352.78
2022-11-29T06:31:06.534Z,100367.63
2022-11-29T06:41:19.351Z,100366.91
2022-11-29T06:51:32.985Z,100366.41
2022-11-29T07:01:44.437Z,100375.19
2022-11-29T07:11:50.543Z,100385.03
2022-11-29T07:22:03.330Z,100398.97
2022-11-29T07:32:18.919Z,100409.81
2022-11-29T07:42:30.341Z,100414.25
2022-11-29T07:52:35.572Z,100416.88
2022-11-29T08:02:39.999Z,100433.16
2022-11-29T08:12:47.468Z,100437.50
2022-11-29T08:22:59.165Z,100445.16
2022-11-29T08:33:04.698Z,100449.47
2022-11-29T08:43:08.354Z,100456.63
2022-11-29T08:53:31.066Z,100466.78
2022-11-29T09:03:57.840Z,100477.81
2022-11-29T09:14:05.631Z,100480.28
2022-11-29T09:24:10.229Z,100497.34
2022-11-29T09:34:15.892Z,100506.81
2022-11-29T09:44:33.137Z,100516.91
2022-11-29T09:54:50.849Z,100526.53
2022-11-29T10:04:58.231Z,100529.56
2022-11-29T10:15:10.896Z,100523.47
2022-11-29T10:25:25.760Z,100519.84
2022-11-29T10:35:30.792Z,100515.22
2022-11-29T10:45:38.923Z,100513.78
2022-11-29T10:55:49.215Z,100528.28
2022-11-29T11:06:13.271Z,100528.75
2022-11-29T11:16:21.531Z,100523.06
2022-11-29T11:26:27.153Z,100526.72
2022-11-29T11:36:32.234Z,100542.16
2022-11-29T11:46:49.090Z,100543.88
2022-11-29T11:56:54.482Z,100547.53
2022-11-29T12:07:01.529Z,100550.34
2022-11-29T12:17:20.389Z,100552.53
2022-11-29T12:27:24.396Z,100554.69
2022-11-29T12:37:37.035Z,100559.19
2022-11-29T12:47:52.430Z,100570.44
2022-11-29T12:58:08.092Z,100571.63
2022-11-29T13:09:11.899Z,100569.81
2022-11-29T13:19:25.599Z,100571.41
2022-11-29T13:29:30.046Z,100585.06
2022-11-29T13:39:58.576Z,100573.53
2022-11-29T13:50:05.309Z,100582.06
2022-11-29T14:00:32.630Z,100578.47
2022-11-29T14:10:36.577Z,100591.81
2022-11-29T14:20:54.418Z,100591.44
2022-11-29T14:31:01.317Z,100601.38
2022-11-29T14:41:21.263Z,100624.78
2022-11-29T14:51:27.827Z,100630.44
2022-11-29T15:01:33.019Z,100643.50
2022-11-29T15:11:51.849Z,100651.53
2022-11-29T15:22:09.827Z,100647.75
2022-11-29T15:32:18.740Z,100644.34
2022-11-29T15:42:26.183Z,100657.84
2022-11-29T15:52:36.342Z,100654.97
2022-11-29T16:02:48.387Z,100684.09
2022-11-29T16:12:54.920Z,100685.16
2022-11-29T16:23:14.926Z,100691.00
2022-11-29T16:33:24.769Z,100690.47
2022-11-29T16:43:56.021Z,100688.03
2022-11-29T16:54:22.164Z,100705.50
2022-11-29T17:04:27.735Z,100713.78
2022-11-29T17:14:33.285Z,100711.94
2022-11-29T17:24:44.931Z,100712.84
2022-11-29T17:34:51.877Z,100735.06
2022-11-29T17:44:58.232Z,100731.06
2022-11-29T17:55:02.127Z,100741.63
2022-11-29T18:05:08.894Z,100746.19
2022-11-29T18:15:12.852Z,100750.53
2022-11-29T18:25:38.366Z,100760.38
2022-11-29T18:35:41.882Z,100764.50
2022-11-29T18:45:47.289Z,100778.34
2022-11-29T18:56:02.516Z,100768.97
2022-11-29T19:06:10.739Z,100778.47
2022-11-29T19:16:18.263Z,100788.81
2022-11-29T19:26:26.280Z,100782.31
2022-11-29T19:36:33.697Z,100790.94
2022-11-29T19:46:41.713Z,100791.63
2022-11-29T19:56:45.525Z,100793.38
2022-11-29T20:06:51.440Z,100787.56
2022-11-29T20:16:55.263Z,100793.56
2022-11-29T20:27:00.404Z,100802.88
2022-11-29T20:37:30.113Z,100808.56
2022-11-29T20:47:50.686Z,100825.09
2022-11-29T20:57:54.775Z,100826.63
2022-11-29T21:08:00.208Z,100826.09
2022-11-29T21:18:04.633Z,100832.91
2022-11-29T21:28:14.251Z,100835.69
2022-11-29T21:38:23.356Z,100829.81
2022-11-29T21:48:38.023Z,100827.19
2022-11-29T21:58:41.991Z,100837.09
2022-11-29T22:08:49.066Z,100824.50
2022-11-29T22:18:53.218Z,100827.84
2022-11-29T22:28:59.395Z,100829.19
2022-11-29T22:39:03.381Z,100835.28
2022-11-29T22:49:10.425Z,100848.72
2022-11-29T22:59:14.498Z,100854.53
2022-11-29T23:09:22.284Z,100861.28
2022-11-29T23:19:26.277Z,100857.06
2022-11-29T23:29:31.324Z,100861.13
2022-11-29T23:39:35.030Z,100859.50
2022-11-29T23:49:40.495Z,100864.03
2022-11-29T23:59:44.146Z,100865.28
